sensor_id;sensor_type;location;lat;lon;timestamp;P1;durP1;ratioP1;P2;durP2;ratioP2
10293;SDS011;5192;50.328;7.610;2022-08-21T00:00:18;4.13;;;2.63;;
10293;SDS011;5192;50.328;7.610;2022-08-21T00:02:58;6.57;;;3.30;;
10293;SDS011;5192;50.328;7.610;2022-08-21T00:05:27;5.57;;;3.07;;
10293;SDS011;5192;50.328;7.610;2022-08-21T00:07:56;4.43;;;2.57;;
10293;SDS011;5192;50.328;7.610;2022-08-21T00:10:23;4.77;;;2.77;;
10293;SDS011;5192;50.328;7.610;2022-08-21T00:12:52;6.37;;;3.57;;
10293;SDS011;5192;50.328;7.610;2022-08-21T00:15:25;8.73;;;3.90;;
10293;SDS011;5192;50.328;7.610;2022-08-21T00:17:56;5.57;;;3.53;;
10293;SDS011;5192;50.328;7.610;2022-08-21T00:20:24;4.57;;;3.03;;
10293;SDS011;5192;50.328;7.610;2022-08-21T00:22:51;7.27;;;3.00;;
10293;SDS011;5192;50.328;7.610;2022-08-21T00:25:18;6.00;;;3.40;;
10293;SDS011;5192;50.328;7.610;2022-08-21T00:27:54;6.53;;;3.47;;
10293;SDS011;5192;50.328;7.610;2022-08-21T00:30:21;5.70;;;3.73;;
10293;SDS011;5192;50.328;7.610;2022-08-21T00:32:48;3.67;;;3.10;;
10293;SDS011;5192;50.328;7.610;2022-08-21T00:35:19;5.03;;;3.23;;
10293;SDS011;5192;50.328;7.610;2022-08-21T00:37:48;6.00;;;3.67;;
10293;SDS011;5192;50.328;7.610;2022-08-21T00:40:16;7.27;;;3.60;;
10293;SDS011;5192;50.328;7.610;2022-08-21T00:42:45;4.53;;;3.20;;
10293;SDS011;5192;50.328;7.610;2022-08-21T00:45:17;5.83;;;3.40;;
10293;SDS011;5192;50.328;7.610;2022-08-21T00:47:44;4.00;;;3.00;;
10293;SDS011;5192;50.328;7.610;2022-08-21T00:50:12;5.30;;;3.80;;
10293;SDS011;5192;50.328;7.610;2022-08-21T00:52:39;6.53;;;3.33;;
10293;SDS011;5192;50.328;7.610;2022-08-21T00:55:07;5.10;;;3.23;;
10293;SDS011;5192;50.328;7.610;2022-08-21T00:57:41;6.23;;;3.73;;
10293;SDS011;5192;50.328;7.610;2022-08-21T01:00:16;6.67;;;3.63;;
10293;SDS011;5192;50.328;7.610;2022-08-21T01:02:46;6.50;;;3.30;;
10293;SDS011;5192;50.328;7.610;2022-08-21T01:05:22;4.63;;;3.07;;
10293;SDS011;5192;50.328;7.610;2022-08-21T01:07:49;6.20;;;3.90;;
10293;SDS011;5192;50.328;7.610;2022-08-21T01:10:16;6.17;;;3.50;;
10293;SDS011;5192;50.328;7.610;2022-08-21T01:12:46;4.50;;;3.10;;
10293;SDS011;5192;50.328;7.610;2022-08-21T01:15:13;6.73;;;3.70;;
10293;SDS011;5192;50.328;7.610;2022-08-21T01:17:40;6.37;;;3.80;;
10293;SDS011;5192;50.328;7.610;2022-08-21T01:20:09;5.93;;;3.63;;
10293;SDS011;5192;50.328;7.610;2022-08-21T01:22:37;7.47;;;3.80;;
10293;SDS011;5192;50.328;7.610;2022-08-21T01:25:04;5.93;;;4.50;;
10293;SDS011;5192;50.328;7.610;2022-08-21T01:27:38;8.93;;;4.57;;
10293;SDS011;5192;50.328;7.610;2022-08-21T01:30:07;6.07;;;4.13;;
10293;SDS011;5192;50.328;7.610;2022-08-21T01:32:46;6.13;;;4.80;;
10293;SDS011;5192;50.328;7.610;2022-08-21T01:35:17;5.53;;;3.67;;
10293;SDS011;5192;50.328;7.610;2022-08-21T01:37:53;5.30;;;4.10;;
10293;SDS011;5192;50.328;7.610;2022-08-21T01:40:21;6.20;;;4.13;;
10293;SDS011;5192;50.328;7.610;2022-08-21T01:42:46;7.77;;;4.07;;
10293;SDS011;5192;50.328;7.610;2022-08-21T01:45:15;5.57;;;3.50;;
10293;SDS011;5192;50.328;7.610;2022-08-21T01:47:41;7.43;;;4.40;;
10293;SDS011;5192;50.328;7.610;2022-08-21T01:50:10;7.87;;;4.20;;
10293;SDS011;5192;50.328;7.610;2022-08-21T01:52:39;6.97;;;4.03;;
10293;SDS011;5192;50.328;7.610;2022-08-21T01:55:09;6.47;;;4.40;;
10293;SDS011;5192;50.328;7.610;2022-08-21T01:57:51;7.63;;;4.10;;
10293;SDS011;5192;50.328;7.610;2022-08-21T02:00:20;5.70;;;4.03;;
10293;SDS011;5192;50.328;7.610;2022-08-21T02:02:48;7.03;;;4.23;;
10293;SDS011;5192;50.328;7.610;2022-08-21T02:05:17;8.37;;;4.30;;
10293;SDS011;5192;50.328;7.610;2022-08-21T02:07:47;7.00;;;4.60;;
10293;SDS011;5192;50.328;7.610;2022-08-21T02:10:17;9.10;;;4.70;;
10293;SDS011;5192;50.328;7.610;2022-08-21T02:12:48;7.27;;;5.30;;
10293;SDS011;5192;50.328;7.610;2022-08-21T02:15:15;8.07;;;4.90;;
10293;SDS011;5192;50.328;7.610;2022-08-21T02:17:42;6.87;;;5.10;;
10293;SDS011;5192;50.328;7.610;2022-08-21T02:20:15;7.20;;;4.93;;
10293;SDS011;5192;50.328;7.610;2022-08-21T02:22:49;7.53;;;5.03;;
10293;SDS011;5192;50.328;7.610;2022-08-21T02:25:18;10.17;;;5.10;;
10293;SDS011;5192;50.328;7.610;2022-08-21T02:27:47;8.67;;;4.90;;
10293;SDS011;5192;50.328;7.610;2022-08-21T02:30:23;5.73;;;5.10;;
10293;SDS011;5192;50.328;7.610;2022-08-21T02:32:53;7.27;;;4.77;;
10293;SDS011;5192;50.328;7.610;2022-08-21T02:35:20;6.63;;;4.63;;
10293;SDS011;5192;50.328;7.610;2022-08-21T02:37:51;7.60;;;5.07;;
10293;SDS011;5192;50.328;7.610;2022-08-21T02:40:41;6.80;;;5.17;;
10293;SDS011;5192;50.328;7.610;2022-08-21T02:43:11;6.57;;;4.77;;
10293;SDS011;5192;50.328;7.610;2022-08-21T02:45:39;7.60;;;5.00;;
10293;SDS011;5192;50.328;7.610;2022-08-21T02:48:08;7.20;;;4.40;;
10293;SDS011;5192;50.328;7.610;2022-08-21T02:50:41;6.67;;;4.83;;
10293;SDS011;5192;50.328;7.610;2022-08-21T02:53:17;6.70;;;4.67;;
10293;SDS011;5192;50.328;7.610;2022-08-21T02:55:48;7.00;;;4.23;;
10293;SDS011;5192;50.328;7.610;2022-08-21T02:58:32;4.70;;;4.20;;
10293;SDS011;5192;50.328;7.610;2022-08-21T03:01:06;6.20;;;4.63;;
10293;SDS011;5192;50.328;7.610;2022-08-21T03:03:35;5.60;;;4.13;;
10293;SDS011;5192;50.328;7.610;2022-08-21T03:06:04;6.37;;;4.53;;
10293;SDS011;5192;50.328;7.610;2022-08-21T03:08:40;5.60;;;4.27;;
10293;SDS011;5192;50.328;7.610;2022-08-21T03:11:10;6.63;;;4.03;;
10293;SDS011;5192;50.328;7.610;2022-08-21T03:13:38;5.57;;;4.27;;
10293;SDS011;5192;50.328;7.610;2022-08-21T03:16:07;5.97;;;4.03;;
10293;SDS011;5192;50.328;7.610;2022-08-21T03:18:33;5.90;;;4.50;;
10293;SDS011;5192;50.328;7.610;2022-08-21T03:21:04;7.70;;;4.37;;
10293;SDS011;5192;50.328;7.610;2022-08-21T03:23:30;5.00;;;4.20;;
10293;SDS011;5192;50.328;7.610;2022-08-21T03:25:59;7.83;;;4.40;;
10293;SDS011;5192;50.328;7.610;2022-08-21T03:28:25;7.27;;;4.67;;
10293;SDS011;5192;50.328;7.610;2022-08-21T03:30:52;6.37;;;4.67;;
10293;SDS011;5192;50.328;7.610;2022-08-21T03:33:18;6.20;;;4.53;;
10293;SDS011;5192;50.328;7.610;2022-08-21T03:35:49;6.33;;;4.80;;
10293;SDS011;5192;50.328;7.610;2022-08-21T03:38:21;8.90;;;5.37;;
10293;SDS011;5192;50.328;7.610;2022-08-21T03:40:47;7.17;;;5.50;;
10293;SDS011;5192;50.328;7.610;2022-08-21T03:43:16;8.07;;;5.20;;
10293;SDS011;5192;50.328;7.610;2022-08-21T03:45:47;7.53;;;5.50;;
10293;SDS011;5192;50.328;7.610;2022-08-21T03:48:13;9.43;;;5.73;;
10293;SDS011;5192;50.328;7.610;2022-08-21T03:50:44;7.60;;;5.63;;
10293;SDS011;5192;50.328;7.610;2022-08-21T03:53:17;7.07;;;5.33;;
10293;SDS011;5192;50.328;7.610;2022-08-21T03:55:46;10.63;;;6.13;;
10293;SDS011;5192;50.328;7.610;2022-08-21T03:58:17;6.53;;;5.30;;
10293;SDS011;5192;50.328;7.610;2022-08-21T04:00:47;7.93;;;5.97;;
10293;SDS011;5192;50.328;7.610;2022-08-21T04:03:16;9.60;;;5.87;;
10293;SDS011;5192;50.328;7.610;2022-08-21T04:05:49;7.67;;;5.40;;
10293;SDS011;5192;50.328;7.610;2022-08-21T04:08:16;8.67;;;5.60;;
10293;SDS011;5192;50.328;7.610;2022-08-21T04:10:47;7.90;;;5.30;;
10293;SDS011;5192;50.328;7.610;2022-08-21T04:13:26;7.07;;;5.57;;
10293;SDS011;5192;50.328;7.610;2022-08-21T04:15:53;8.37;;;5.80;;
10293;SDS011;5192;50.328;7.610;2022-08-21T04:18:20;6.43;;;5.40;;
10293;SDS011;5192;50.328;7.610;2022-08-21T04:20:47;9.80;;;6.30;;
10293;SDS011;5192;50.328;7.610;2022-08-21T04:23:17;9.67;;;5.83;;
10293;SDS011;5192;50.328;7.610;2022-08-21T04:25:48;6.43;;;4.97;;
10293;SDS011;5192;50.328;7.610;2022-08-21T04:28:14;10.63;;;5.57;;
10293;SDS011;5192;50.328;7.610;2022-08-21T04:30:43;5.87;;;5.27;;
10293;SDS011;5192;50.328;7.610;2022-08-21T04:33:12;6.23;;;5.50;;
10293;SDS011;5192;50.328;7.610;2022-08-21T04:35:50;7.87;;;4.90;;
10293;SDS011;5192;50.328;7.610;2022-08-21T04:38:18;9.07;;;5.70;;
10293;SDS011;5192;50.328;7.610;2022-08-21T04:40:45;6.60;;;5.60;;
10293;SDS011;5192;50.328;7.610;2022-08-21T04:43:13;7.00;;;5.70;;
10293;SDS011;5192;50.328;7.610;2022-08-21T04:45:42;6.60;;;5.07;;
10293;SDS011;5192;50.328;7.610;2022-08-21T04:48:12;6.53;;;5.10;;
10293;SDS011;5192;50.328;7.610;2022-08-21T04:57:01;8.40;;;5.30;;
10293;SDS011;5192;50.328;7.610;2022-08-21T04:59:28;9.10;;;5.63;;
10293;SDS011;5192;50.328;7.610;2022-08-21T05:02:09;8.57;;;5.03;;
10293;SDS011;5192;50.328;7.610;2022-08-21T05:04:42;6.93;;;5.40;;
10293;SDS011;5192;50.328;7.610;2022-08-21T05:07:22;8.27;;;4.90;;
10293;SDS011;5192;50.328;7.610;2022-08-21T05:10:11;7.60;;;5.03;;
10293;SDS011;5192;50.328;7.610;2022-08-21T05:12:50;8.93;;;5.57;;
10293;SDS011;5192;50.328;7.610;2022-08-21T05:15:18;6.20;;;5.37;;
10293;SDS011;5192;50.328;7.610;2022-08-21T05:17:49;10.23;;;5.13;;
10293;SDS011;5192;50.328;7.610;2022-08-21T05:20:18;7.43;;;5.57;;
10293;SDS011;5192;50.328;7.610;2022-08-21T05:22:51;7.77;;;5.10;;
10293;SDS011;5192;50.328;7.610;2022-08-21T05:25:18;7.87;;;5.30;;
10293;SDS011;5192;50.328;7.610;2022-08-21T05:27:49;8.10;;;4.97;;
10293;SDS011;5192;50.328;7.610;2022-08-21T05:30:41;7.83;;;4.87;;
10293;SDS011;5192;50.328;7.610;2022-08-21T05:33:10;7.30;;;5.20;;
10293;SDS011;5192;50.328;7.610;2022-08-21T05:35:40;9.30;;;5.60;;
10293;SDS011;5192;50.328;7.610;2022-08-21T05:38:11;11.20;;;5.70;;
10293;SDS011;5192;50.328;7.610;2022-08-21T05:40:42;7.23;;;5.33;;
10293;SDS011;5192;50.328;7.610;2022-08-21T05:43:11;7.57;;;5.13;;
10293;SDS011;5192;50.328;7.610;2022-08-21T05:45:41;7.70;;;5.07;;
10293;SDS011;5192;50.328;7.610;2022-08-21T05:48:14;6.93;;;5.03;;
10293;SDS011;5192;50.328;7.610;2022-08-21T05:51:12;6.43;;;5.23;;
10293;SDS011;5192;50.328;7.610;2022-08-21T05:54:02;7.73;;;5.60;;
10293;SDS011;5192;50.328;7.610;2022-08-21T05:56:28;8.10;;;5.33;;
10293;SDS011;5192;50.328;7.610;2022-08-21T05:59:00;6.83;;;5.20;;
10293;SDS011;5192;50.328;7.610;2022-08-21T06:01:29;7.40;;;5.70;;
10293;SDS011;5192;50.328;7.610;2022-08-21T06:04:02;7.23;;;5.27;;
10293;SDS011;5192;50.328;7.610;2022-08-21T06:06:29;6.70;;;5.00;;
10293;SDS011;5192;50.328;7.610;2022-08-21T06:08:59;8.20;;;5.03;;
10293;SDS011;5192;50.328;7.610;2022-08-21T06:11:30;9.67;;;5.60;;
10293;SDS011;5192;50.328;7.610;2022-08-21T06:14:00;8.37;;;5.60;;
10293;SDS011;5192;50.328;7.610;2022-08-21T06:16:49;6.80;;;5.13;;
10293;SDS011;5192;50.328;7.610;2022-08-21T06:19:18;6.47;;;5.20;;
10293;SDS011;5192;50.328;7.610;2022-08-21T06:21:50;6.80;;;5.23;;
10293;SDS011;5192;50.328;7.610;2022-08-21T06:24:20;5.53;;;4.60;;
10293;SDS011;5192;50.328;7.610;2022-08-21T06:26:50;8.20;;;5.17;;
10293;SDS011;5192;50.328;7.610;2022-08-21T06:29:19;6.53;;;4.93;;
10293;SDS011;5192;50.328;7.610;2022-08-21T06:31:50;5.63;;;5.00;;
10293;SDS011;5192;50.328;7.610;2022-08-21T06:34:21;7.23;;;4.70;;
10293;SDS011;5192;50.328;7.610;2022-08-21T06:36:51;8.37;;;4.80;;
10293;SDS011;5192;50.328;7.610;2022-08-21T06:39:21;6.13;;;4.90;;
10293;SDS011;5192;50.328;7.610;2022-08-21T06:42:23;10.47;;;5.13;;
10293;SDS011;5192;50.328;7.610;2022-08-21T06:44:58;8.03;;;5.07;;
10293;SDS011;5192;50.328;7.610;2022-08-21T06:47:30;9.07;;;4.83;;
10293;SDS011;5192;50.328;7.610;2022-08-21T06:49:55;8.57;;;4.93;;
10293;SDS011;5192;50.328;7.610;2022-08-21T06:52:31;9.17;;;6.03;;
10293;SDS011;5192;50.328;7.610;2022-08-21T06:55:00;7.77;;;4.90;;
10293;SDS011;5192;50.328;7.610;2022-08-21T06:57:30;8.10;;;5.40;;
10293;SDS011;5192;50.328;7.610;2022-08-21T06:59:59;6.80;;;5.53;;
10293;SDS011;5192;50.328;7.610;2022-08-21T07:02:30;8.27;;;4.53;;
10293;SDS011;5192;50.328;7.610;2022-08-21T07:04:59;8.40;;;5.33;;
10293;SDS011;5192;50.328;7.610;2022-08-21T07:07:29;6.90;;;4.60;;
10293;SDS011;5192;50.328;7.610;2022-08-21T07:10:01;6.97;;;4.57;;
10293;SDS011;5192;50.328;7.610;2022-08-21T07:12:28;6.87;;;5.00;;
10293;SDS011;5192;50.328;7.610;2022-08-21T07:15:02;6.60;;;4.83;;
10293;SDS011;5192;50.328;7.610;2022-08-21T07:17:40;7.37;;;4.80;;
10293;SDS011;5192;50.328;7.610;2022-08-21T07:20:10;7.27;;;4.67;;
10293;SDS011;5192;50.328;7.610;2022-08-21T07:22:41;6.33;;;4.57;;
10293;SDS011;5192;50.328;7.610;2022-08-21T07:25:10;7.60;;;4.50;;
10293;SDS011;5192;50.328;7.610;2022-08-21T07:27:37;9.57;;;5.03;;
10293;SDS011;5192;50.328;7.610;2022-08-21T07:30:11;9.20;;;5.43;;
10293;SDS011;5192;50.328;7.610;2022-08-21T07:32:42;6.10;;;4.57;;
10293;SDS011;5192;50.328;7.610;2022-08-21T07:35:08;9.63;;;4.93;;
10293;SDS011;5192;50.328;7.610;2022-08-21T07:37:41;7.73;;;4.40;;
10293;SDS011;5192;50.328;7.610;2022-08-21T07:40:10;10.30;;;4.57;;
10293;SDS011;5192;50.328;7.610;2022-08-21T07:42:44;7.40;;;4.60;;
10293;SDS011;5192;50.328;7.610;2022-08-21T07:45:29;6.43;;;4.50;;
10293;SDS011;5192;50.328;7.610;2022-08-21T07:47:55;6.27;;;4.63;;
10293;SDS011;5192;50.328;7.610;2022-08-21T07:50:51;6.40;;;4.07;;
10293;SDS011;5192;50.328;7.610;2022-08-21T07:53:21;9.47;;;5.37;;
10293;SDS011;5192;50.328;7.610;2022-08-21T07:55:50;11.83;;;5.40;;
10293;SDS011;5192;50.328;7.610;2022-08-21T07:58:22;8.40;;;4.40;;
10293;SDS011;5192;50.328;7.610;2022-08-21T08:00:50;6.93;;;4.40;;
10293;SDS011;5192;50.328;7.610;2022-08-21T08:03:19;8.47;;;4.70;;
10293;SDS011;5192;50.328;7.610;2022-08-21T08:05:48;6.30;;;4.17;;
10293;SDS011;5192;50.328;7.610;2022-08-21T08:08:21;8.43;;;4.13;;
10293;SDS011;5192;50.328;7.610;2022-08-21T08:10:50;7.37;;;4.43;;
10293;SDS011;5192;50.328;7.610;2022-08-21T08:13:23;11.13;;;6.87;;
10293;SDS011;5192;50.328;7.610;2022-08-21T08:15:49;7.77;;;4.40;;
10293;SDS011;5192;50.328;7.610;2022-08-21T08:18:21;6.57;;;4.40;;
10293;SDS011;5192;50.328;7.610;2022-08-21T08:20:50;10.00;;;5.43;;
10293;SDS011;5192;50.328;7.610;2022-08-21T08:23:20;8.83;;;5.73;;
10293;SDS011;5192;50.328;7.610;2022-08-21T08:25:52;6.00;;;4.50;;
10293;SDS011;5192;50.328;7.610;2022-08-21T08:28:22;8.00;;;4.97;;
10293;SDS011;5192;50.328;7.610;2022-08-21T08:30:51;8.20;;;4.57;;
10293;SDS011;5192;50.328;7.610;2022-08-21T08:33:21;8.13;;;4.53;;
10293;SDS011;5192;50.328;7.610;2022-08-21T08:35:48;6.83;;;4.27;;
10293;SDS011;5192;50.328;7.610;2022-08-21T08:38:22;9.10;;;4.70;;
10293;SDS011;5192;50.328;7.610;2022-08-21T08:41:20;8.00;;;5.38;;
10293;SDS011;5192;50.328;7.610;2022-08-21T08:44:02;5.77;;;4.90;;
10293;SDS011;5192;50.328;7.610;2022-08-21T08:46:41;9.03;;;5.07;;
10293;SDS011;5192;50.328;7.610;2022-08-21T08:52:42;7.38;;;4.70;;
10293;SDS011;5192;50.328;7.610;2022-08-21T08:55:23;7.43;;;5.22;;
10293;SDS011;5192;50.328;7.610;2022-08-21T08:58:14;6.88;;;5.20;;
10293;SDS011;5192;50.328;7.610;2022-08-21T09:01:02;8.38;;;4.95;;
10293;SDS011;5192;50.328;7.610;2022-08-21T09:03:50;7.55;;;4.47;;
10293;SDS011;5192;50.328;7.610;2022-08-21T09:19:28;5.65;;;3.30;;
10293;SDS011;5192;50.328;7.610;2022-08-21T09:28:11;4.53;;;2.95;;
10293;SDS011;5192;50.328;7.610;2022-08-21T09:31:05;6.68;;;2.90;;
10293;SDS011;5192;50.328;7.610;2022-08-21T09:34:11;7.28;;;4.10;;
10293;SDS011;5192;50.328;7.610;2022-08-21T09:36:52;3.92;;;2.78;;
10293;SDS011;5192;50.328;7.610;2022-08-21T09:39:24;5.25;;;2.88;;
10293;SDS011;5192;50.328;7.610;2022-08-21T09:42:10;6.13;;;3.17;;
10293;SDS011;5192;50.328;7.610;2022-08-21T09:44:41;5.55;;;3.05;;
10293;SDS011;5192;50.328;7.610;2022-08-21T09:47:13;9.45;;;4.85;;
10293;SDS011;5192;50.328;7.610;2022-08-21T09:49:51;9.77;;;3.88;;
10293;SDS011;5192;50.328;7.610;2022-08-21T09:52:22;7.15;;;4.00;;
10293;SDS011;5192;50.328;7.610;2022-08-21T09:54:59;5.93;;;2.58;;
10293;SDS011;5192;50.328;7.610;2022-08-21T09:57:31;6.93;;;2.88;;
10293;SDS011;5192;50.328;7.610;2022-08-21T10:00:23;5.68;;;2.47;;
10293;SDS011;5192;50.328;7.610;2022-08-21T10:03:13;5.38;;;2.70;;
10293;SDS011;5192;50.328;7.610;2022-08-21T10:06:03;4.93;;;3.38;;
10293;SDS011;5192;50.328;7.610;2022-08-21T10:09:20;7.72;;;2.97;;
10293;SDS011;5192;50.328;7.610;2022-08-21T10:23:54;4.15;;;2.40;;
10293;SDS011;5192;50.328;7.610;2022-08-21T10:26:45;4.95;;;2.58;;
10293;SDS011;5192;50.328;7.610;2022-08-21T10:30:03;5.00;;;2.47;;
10293;SDS011;5192;50.328;7.610;2022-08-21T10:42:16;4.95;;;2.35;;
10293;SDS011;5192;50.328;7.610;2022-08-21T10:45:15;4.13;;;2.50;;
10293;SDS011;5192;50.328;7.610;2022-08-21T10:48:05;4.43;;;2.45;;
10293;SDS011;5192;50.328;7.610;2022-08-21T10:51:15;5.57;;;2.78;;
10293;SDS011;5192;50.328;7.610;2022-08-21T10:55:02;4.80;;;2.75;;
10293;SDS011;5192;50.328;7.610;2022-08-21T10:57:33;5.30;;;4.20;;
10293;SDS011;5192;50.328;7.610;2022-08-21T11:00:14;3.55;;;2.40;;
10293;SDS011;5192;50.328;7.610;2022-08-21T11:06:24;4.97;;;2.55;;
10293;SDS011;5192;50.328;7.610;2022-08-21T11:09:11;3.60;;;2.42;;
10293;SDS011;5192;50.328;7.610;2022-08-21T11:11:59;3.97;;;2.80;;
10293;SDS011;5192;50.328;7.610;2022-08-21T11:18:19;4.38;;;2.47;;
10293;SDS011;5192;50.328;7.610;2022-08-21T11:21:20;4.78;;;2.63;;
10293;SDS011;5192;50.328;7.610;2022-08-21T11:30:00;3.08;;;2.35;;
10293;SDS011;5192;50.328;7.610;2022-08-21T11:38:46;2.97;;;2.30;;
10293;SDS011;5192;50.328;7.610;2022-08-21T11:41:37;5.07;;;2.90;;
10293;SDS011;5192;50.328;7.610;2022-08-21T11:50:39;5.60;;;2.50;;
10293;SDS011;5192;50.328;7.610;2022-08-21T11:53:09;4.93;;;2.70;;
10293;SDS011;5192;50.328;7.610;2022-08-21T11:56:18;4.85;;;2.50;;
10293;SDS011;5192;50.328;7.610;2022-08-21T11:59:02;4.60;;;2.20;;
10293;SDS011;5192;50.328;7.610;2022-08-21T12:01:41;5.18;;;2.47;;
10293;SDS011;5192;50.328;7.610;2022-08-21T12:07:44;3.85;;;2.80;;
10293;SDS011;5192;50.328;7.610;2022-08-21T12:10:31;3.33;;;2.78;;
10293;SDS011;5192;50.328;7.610;2022-08-21T12:13:10;3.22;;;2.53;;
10293;SDS011;5192;50.328;7.610;2022-08-21T12:16:11;4.28;;;2.50;;
10293;SDS011;5192;50.328;7.610;2022-08-21T12:18:39;5.63;;;2.33;;
10293;SDS011;5192;50.328;7.610;2022-08-21T12:21:25;4.60;;;2.80;;
10293;SDS011;5192;50.328;7.610;2022-08-21T12:26:47;4.45;;;2.65;;
10293;SDS011;5192;50.328;7.610;2022-08-21T12:29:16;4.50;;;2.58;;
10293;SDS011;5192;50.328;7.610;2022-08-21T12:32:18;6.75;;;2.58;;
10293;SDS011;5192;50.328;7.610;2022-08-21T12:34:58;4.55;;;2.40;;
10293;SDS011;5192;50.328;7.610;2022-08-21T12:37:46;3.35;;;2.42;;
10293;SDS011;5192;50.328;7.610;2022-08-21T12:43:36;4.13;;;2.45;;
10293;SDS011;5192;50.328;7.610;2022-08-21T12:46:06;4.97;;;2.70;;
10293;SDS011;5192;50.328;7.610;2022-08-21T12:48:52;5.68;;;2.70;;
10293;SDS011;5192;50.328;7.610;2022-08-21T12:51:24;4.28;;;2.60;;
10293;SDS011;5192;50.328;7.610;2022-08-21T12:54:01;4.00;;;2.63;;
10293;SDS011;5192;50.328;7.610;2022-08-21T12:56:28;3.65;;;2.47;;
10293;SDS011;5192;50.328;7.610;2022-08-21T12:59:05;4.28;;;2.40;;
10293;SDS011;5192;50.328;7.610;2022-08-21T13:01:55;4.00;;;2.10;;
10293;SDS011;5192;50.328;7.610;2022-08-21T13:04:27;5.07;;;2.08;;
10293;SDS011;5192;50.328;7.610;2022-08-21T13:07:09;4.30;;;2.47;;
10293;SDS011;5192;50.328;7.610;2022-08-21T13:09:54;4.45;;;2.70;;
10293;SDS011;5192;50.328;7.610;2022-08-21T13:12:40;4.35;;;2.40;;
10293;SDS011;5192;50.328;7.610;2022-08-21T13:15:09;5.65;;;2.25;;
10293;SDS011;5192;50.328;7.610;2022-08-21T13:17:36;4.88;;;2.40;;
10293;SDS011;5192;50.328;7.610;2022-08-21T13:20:07;3.10;;;2.13;;
10293;SDS011;5192;50.328;7.610;2022-08-21T13:22:44;3.42;;;2.15;;
10293;SDS011;5192;50.328;7.610;2022-08-21T13:25:13;4.65;;;2.30;;
10293;SDS011;5192;50.328;7.610;2022-08-21T13:27:44;6.60;;;2.35;;
10293;SDS011;5192;50.328;7.610;2022-08-21T13:30:22;2.33;;;1.98;;
10293;SDS011;5192;50.328;7.610;2022-08-21T13:32:51;5.15;;;2.40;;
10293;SDS011;5192;50.328;7.610;2022-08-21T13:35:51;4.72;;;2.67;;
10293;SDS011;5192;50.328;7.610;2022-08-21T13:38:30;3.55;;;2.28;;
10293;SDS011;5192;50.328;7.610;2022-08-21T13:44:31;4.75;;;2.28;;
10293;SDS011;5192;50.328;7.610;2022-08-21T13:47:11;3.83;;;2.30;;
10293;SDS011;5192;50.328;7.610;2022-08-21T13:49:42;4.53;;;2.20;;
10293;SDS011;5192;50.328;7.610;2022-08-21T13:52:48;3.92;;;2.40;;
10293;SDS011;5192;50.328;7.610;2022-08-21T13:55:39;3.42;;;2.30;;
10293;SDS011;5192;50.328;7.610;2022-08-21T14:01:31;3.20;;;2.30;;
10293;SDS011;5192;50.328;7.610;2022-08-21T14:07:24;4.47;;;2.20;;
10293;SDS011;5192;50.328;7.610;2022-08-21T14:10:13;4.60;;;2.60;;
10293;SDS011;5192;50.328;7.610;2022-08-21T14:12:51;5.38;;;2.35;;
10293;SDS011;5192;50.328;7.610;2022-08-21T14:16:27;2.63;;;2.10;;
10293;SDS011;5192;50.328;7.610;2022-08-21T14:19:17;3.95;;;2.35;;
10293;SDS011;5192;50.328;7.610;2022-08-21T14:21:52;4.15;;;2.67;;
10293;SDS011;5192;50.328;7.610;2022-08-21T14:27:10;4.25;;;2.78;;
10293;SDS011;5192;50.328;7.610;2022-08-21T14:30:08;3.60;;;2.30;;
10293;SDS011;5192;50.328;7.610;2022-08-21T14:33:17;4.28;;;2.20;;
10293;SDS011;5192;50.328;7.610;2022-08-21T14:35:59;2.08;;;1.88;;
10293;SDS011;5192;50.328;7.610;2022-08-21T14:38:30;6.22;;;2.78;;
10293;SDS011;5192;50.328;7.610;2022-08-21T14:41:03;3.05;;;2.33;;
10293;SDS011;5192;50.328;7.610;2022-08-21T14:43:34;3.60;;;2.55;;
10293;SDS011;5192;50.328;7.610;2022-08-21T14:45:59;5.30;;;2.25;;
10293;SDS011;5192;50.328;7.610;2022-08-21T14:48:26;3.88;;;2.30;;
10293;SDS011;5192;50.328;7.610;2022-08-21T14:50:51;3.50;;;2.45;;
10293;SDS011;5192;50.328;7.610;2022-08-21T14:53:18;3.58;;;2.30;;
10293;SDS011;5192;50.328;7.610;2022-08-21T14:55:44;3.80;;;2.10;;
10293;SDS011;5192;50.328;7.610;2022-08-21T14:58:40;4.00;;;2.35;;
10293;SDS011;5192;50.328;7.610;2022-08-21T15:01:17;4.07;;;2.67;;
10293;SDS011;5192;50.328;7.610;2022-08-21T15:03:48;2.42;;;2.10;;
10293;SDS011;5192;50.328;7.610;2022-08-21T15:06:16;4.25;;;2.30;;
10293;SDS011;5192;50.328;7.610;2022-08-21T15:08:42;3.85;;;2.22;;
10293;SDS011;5192;50.328;7.610;2022-08-21T15:11:11;3.28;;;2.33;;
10293;SDS011;5192;50.328;7.610;2022-08-21T15:13:42;4.10;;;2.30;;
10293;SDS011;5192;50.328;7.610;2022-08-21T15:16:09;5.45;;;2.50;;
10293;SDS011;5192;50.328;7.610;2022-08-21T15:18:39;4.78;;;2.50;;
10293;SDS011;5192;50.328;7.610;2022-08-21T15:21:07;4.00;;;2.10;;
10293;SDS011;5192;50.328;7.610;2022-08-21T15:23:43;2.60;;;2.13;;
10293;SDS011;5192;50.328;7.610;2022-08-21T15:26:09;4.00;;;2.35;;
10293;SDS011;5192;50.328;7.610;2022-08-21T15:28:35;2.78;;;2.13;;
10293;SDS011;5192;50.328;7.610;2022-08-21T15:31:04;4.03;;;2.42;;
10293;SDS011;5192;50.328;7.610;2022-08-21T15:33:35;5.00;;;2.40;;
10293;SDS011;5192;50.328;7.610;2022-08-21T15:36:02;4.55;;;2.28;;
10293;SDS011;5192;50.328;7.610;2022-08-21T15:38:29;4.38;;;2.38;;
10293;SDS011;5192;50.328;7.610;2022-08-21T15:40:58;4.28;;;2.08;;
10293;SDS011;5192;50.328;7.610;2022-08-21T15:43:45;4.18;;;2.05;;
10293;SDS011;5192;50.328;7.610;2022-08-21T15:46:17;5.13;;;2.22;;
10293;SDS011;5192;50.328;7.610;2022-08-21T15:48:44;5.20;;;2.50;;
10293;SDS011;5192;50.328;7.610;2022-08-21T15:51:17;5.07;;;2.20;;
10293;SDS011;5192;50.328;7.610;2022-08-21T15:53:43;5.03;;;1.98;;
10293;SDS011;5192;50.328;7.610;2022-08-21T15:56:20;4.82;;;2.13;;
10293;SDS011;5192;50.328;7.610;2022-08-21T15:58:52;4.28;;;2.30;;
10293;SDS011;5192;50.328;7.610;2022-08-21T16:01:27;3.45;;;2.20;;
10293;SDS011;5192;50.328;7.610;2022-08-21T16:03:54;4.95;;;2.30;;
10293;SDS011;5192;50.328;7.610;2022-08-21T16:06:25;4.40;;;2.20;;
10293;SDS011;5192;50.328;7.610;2022-08-21T16:08:52;3.72;;;2.30;;
10293;SDS011;5192;50.328;7.610;2022-08-21T16:11:17;4.03;;;2.33;;
10293;SDS011;5192;50.328;7.610;2022-08-21T16:13:45;3.38;;;2.28;;
10293;SDS011;5192;50.328;7.610;2022-08-21T16:16:15;4.32;;;2.20;;
10293;SDS011;5192;50.328;7.610;2022-08-21T16:18:45;4.80;;;2.55;;
10293;SDS011;5192;50.328;7.610;2022-08-21T16:21:14;2.55;;;2.00;;
10293;SDS011;5192;50.328;7.610;2022-08-21T16:23:42;4.65;;;2.42;;
10293;SDS011;5192;50.328;7.610;2022-08-21T16:26:08;4.28;;;2.10;;
10293;SDS011;5192;50.328;7.610;2022-08-21T16:28:39;4.15;;;2.42;;
10293;SDS011;5192;50.328;7.610;2022-08-21T16:31:07;6.20;;;2.03;;
10293;SDS011;5192;50.328;7.610;2022-08-21T16:36:06;3.33;;;2.10;;
10293;SDS011;5192;50.328;7.610;2022-08-21T16:38:33;3.03;;;2.00;;
10293;SDS011;5192;50.328;7.610;2022-08-21T16:41:03;5.50;;;2.63;;
10293;SDS011;5192;50.328;7.610;2022-08-21T16:43:46;3.42;;;2.33;;
10293;SDS011;5192;50.328;7.610;2022-08-21T16:46:14;2.80;;;2.17;;
10293;SDS011;5192;50.328;7.610;2022-08-21T16:48:46;5.03;;;2.70;;
10293;SDS011;5192;50.328;7.610;2022-08-21T16:51:12;4.60;;;2.38;;
10293;SDS011;5192;50.328;7.610;2022-08-21T16:53:40;3.00;;;2.20;;
10293;SDS011;5192;50.328;7.610;2022-08-21T16:56:10;3.03;;;2.10;;
10293;SDS011;5192;50.328;7.610;2022-08-21T16:58:40;4.32;;;2.30;;
10293;SDS011;5192;50.328;7.610;2022-08-21T17:01:10;3.85;;;2.10;;
10293;SDS011;5192;50.328;7.610;2022-08-21T17:03:40;2.95;;;2.00;;
10293;SDS011;5192;50.328;7.610;2022-08-21T17:06:13;3.53;;;2.17;;
10293;SDS011;5192;50.328;7.610;2022-08-21T17:08:43;6.50;;;2.45;;
10293;SDS011;5192;50.328;7.610;2022-08-21T17:11:14;3.35;;;2.50;;
10293;SDS011;5192;50.328;7.610;2022-08-21T17:14:00;3.65;;;2.42;;
10293;SDS011;5192;50.328;7.610;2022-08-21T17:16:28;2.97;;;2.10;;
10293;SDS011;5192;50.328;7.610;2022-08-21T17:18:54;2.90;;;1.85;;
10293;SDS011;5192;50.328;7.610;2022-08-21T17:21:20;3.13;;;1.90;;
10293;SDS011;5192;50.328;7.610;2022-08-21T17:23:47;5.05;;;2.20;;